Scotland, Georgia
Current Conditions -  °F | °C
As of 5:55 AM on Sunday 26 Oct 2014 (Local Time) from KAZE Reporting Station
Clear Clear  
Wind Chill: 54°   Ceiling: Unl
Heat Index: 54°   Visibility: 10mi
Dew Point: 52°   Wind: 0mph
Humidity: 92%   Direction: NA
Pressure: 29.96"   Gusts: NA
Location:  32.05°N, 82.82°W
Report Text: KAZE 260955Z AUTO 00000KT 10SM CLR 12/11 A2996 RMK AO2 T01240111
Loading
Personal Weather Stations






























Interactive Weather Map New forecast layout! Learn more

10-Day Weather Forecast

Advertisements
Track Severe Weather on mobile